Time;durP1;ratioP1;P1;durP2;ratioP2;P2;SDS_P1;SDS_P2;PMS_P1;PMS_P2;Temp;Humidity;BMP_temperature;BMP_pressure;BME280_temperature;BME280_humidity;BME280_pressure;Samples;Min_cycle;Max_cycle;Signal;HPM_P1;HPM_P2
2023/03/19 00:00:44;;;;;;;13.50;7.72;;;6.90;40.20;;;;;;4982257;28;114407;-82
2023/03/19 00:03:12;;;;;;;12.02;7.45;;;6.80;40.20;;;;;;4962117;28;115138;-81
2023/03/19 00:05:39;;;;;;;12.48;7.32;;;6.80;40.40;;;;;;4962820;28;114706;-82
2023/03/19 00:08:06;;;;;;;11.77;6.88;;;6.80;40.60;;;;;;4964691;28;114775;-82
2023/03/19 00:10:38;;;;;;;12.75;6.82;;;6.80;40.50;;;;;;4963007;28;114509;-81
2023/03/19 00:13:09;;;;;;;12.02;7.10;;;6.90;40.80;;;;;;4961593;28;115144;-81
2023/03/19 00:15:36;;;;;;;11.30;6.68;;;6.90;40.70;;;;;;4964395;28;114664;-81
2023/03/19 00:18:05;;;;;;;11.23;6.45;;;6.90;40.90;;;;;;4967777;28;114719;-81
2023/03/19 00:20:32;;;;;;;11.73;6.18;;;6.90;40.90;;;;;;4967833;28;114401;-81
2023/03/19 00:22:59;;;;;;;10.18;5.93;;;6.90;41.10;;;;;;4982856;28;115182;-81
2023/03/19 00:25:27;;;;;;;11.20;6.72;;;6.90;41.10;;;;;;4983846;28;115766;-81
2023/03/19 00:27:54;;;;;;;10.75;6.25;;;7.00;41.40;;;;;;4981772;28;116948;-81
2023/03/19 00:30:21;;;;;;;10.57;6.47;;;7.00;41.30;;;;;;4964346;28;114313;-81
2023/03/19 00:32:48;;;;;;;8.38;5.57;;;7.00;41.50;;;;;;4971003;28;115181;-81
2023/03/19 00:35:16;;;;;;;9.20;6.30;;;7.00;41.50;;;;;;4989950;28;119496;-83
2023/03/19 00:37:43;;;;;;;8.18;5.90;;;7.00;41.50;;;;;;5001900;28;114587;-81
2023/03/19 00:40:11;;;;;;;9.27;5.45;;;7.00;41.60;;;;;;4983681;28;114558;-81
2023/03/19 00:42:38;;;;;;;8.50;6.15;;;7.00;42.20;;;;;;4983601;28;115038;-81
2023/03/19 00:45:07;;;;;;;8.52;5.80;;;6.90;42.10;;;;;;4965455;28;115145;-81
2023/03/19 00:47:34;;;;;;;8.40;5.70;;;6.90;42.00;;;;;;4983401;28;114382;-82
2023/03/19 00:50:03;;;;;;;8.75;5.63;;;6.90;42.30;;;;;;4982097;28;115694;-81
2023/03/19 00:52:31;;;;;;;9.48;6.00;;;6.90;42.30;;;;;;4962607;28;115245;-81
2023/03/19 00:54:58;;;;;;;10.85;6.13;;;6.80;42.30;;;;;;4961485;28;114713;-81
2023/03/19 00:57:25;;;;;;;8.73;5.50;;;6.90;42.50;;;;;;4963523;28;116929;-81
2023/03/19 00:59:53;;;;;;;9.32;6.10;;;6.80;42.60;;;;;;4947282;28;115080;-82
2023/03/19 01:02:20;;;;;;;10.13;5.63;;;6.80;42.80;;;;;;4973320;28;115370;-81
2023/03/19 01:04:48;;;;;;;7.13;5.32;;;6.80;42.90;;;;;;4983370;28;114652;-81
2023/03/19 01:07:15;;;;;;;7.15;5.30;;;6.80;43.20;;;;;;4966752;28;114435;-81
2023/03/19 01:09:43;;;;;;;10.45;5.95;;;6.80;43.00;;;;;;4984470;28;114328;-81
2023/03/19 01:12:10;;;;;;;8.57;5.75;;;6.70;43.40;;;;;;4986150;28;115051;-81
2023/03/19 01:14:38;;;;;;;9.55;6.03;;;6.70;43.40;;;;;;4985556;28;116345;-81
2023/03/19 01:17:08;;;;;;;9.57;6.22;;;6.70;43.60;;;;;;4986517;28;114445;-82
2023/03/19 01:19:35;;;;;;;9.00;5.72;;;6.70;43.70;;;;;;4970264;28;114463;-81
2023/03/19 01:22:03;;;;;;;8.40;5.90;;;6.70;43.80;;;;;;4985596;28;115298;-81
2023/03/19 01:24:31;;;;;;;8.85;6.32;;;6.70;44.10;;;;;;4985315;28;114953;-81
2023/03/19 01:26:59;;;;;;;9.98;6.57;;;6.70;44.20;;;;;;4987105;28;114383;-81
2023/03/19 01:29:34;;;;;;;9.48;5.95;;;6.70;44.20;;;;;;4986369;28;114576;-81
2023/03/19 01:32:36;;;;;;;10.27;6.25;;;6.60;44.20;;;;;;4973570;28;115127;-81
2023/03/19 01:35:19;;;;;;;9.35;6.13;;;6.60;44.20;;;;;;4971293;28;114556;-81
2023/03/19 01:37:47;;;;;;;9.00;5.88;;;6.60;44.40;;;;;;4986439;28;114902;-81
2023/03/19 01:40:14;;;;;;;9.32;6.43;;;6.70;44.30;;;;;;4986309;28;114754;-81
2023/03/19 01:42:55;;;;;;;9.77;6.47;;;6.60;44.50;;;;;;4960117;28;115715;-81
2023/03/19 01:45:41;;;;;;;9.10;6.07;;;6.70;44.80;;;;;;4972003;28;117357;-81
2023/03/19 01:48:48;;;;;;;10.60;6.20;;;6.70;44.80;;;;;;4987584;28;114397;-82
2023/03/19 01:51:20;;;;;;;9.95;6.20;;;6.70;45.00;;;;;;4974826;28;114641;-81
2023/03/19 01:54:10;;;;;;;9.27;6.50;;;6.60;44.90;;;;;;4965043;28;115323;-81
2023/03/19 01:56:55;;;;;;;9.27;5.70;;;6.60;45.10;;;;;;4951326;28;114734;-81
2023/03/19 01:59:50;;;;;;;8.98;5.57;;;6.60;45.30;;;;;;4952686;28;114490;-81
2023/03/19 02:02:36;;;;;;;11.43;6.20;;;6.60;45.40;;;;;;4953465;28;114646;-81
2023/03/19 02:05:24;;;;;;;9.68;6.18;;;6.50;45.40;;;;;;4950308;28;115273;-81
2023/03/19 02:08:00;;;;;;;9.75;6.25;;;6.50;45.70;;;;;;4964118;28;114840;-81
2023/03/19 02:10:28;;;;;;;9.88;6.80;;;6.50;45.90;;;;;;4949528;28;114517;-81
2023/03/19 02:12:55;;;;;;;10.55;6.35;;;6.50;46.00;;;;;;4950688;28;114437;-81
2023/03/19 02:15:23;;;;;;;10.85;6.70;;;6.50;46.30;;;;;;4965248;28;115662;-82
2023/03/19 02:18:02;;;;;;;10.07;6.63;;;6.50;46.30;;;;;;4949368;28;114782;-81
2023/03/19 02:20:34;;;;;;;9.43;6.30;;;6.50;46.50;;;;;;4958475;28;114462;-80
2023/03/19 02:23:33;;;;;;;10.90;6.13;;;6.50;46.30;;;;;;4961252;28;114366;-81
2023/03/19 02:26:22;;;;;;;7.68;5.97;;;6.50;46.50;;;;;;4952121;28;115317;-81
2023/03/19 02:28:58;;;;;;;8.77;6.10;;;6.40;46.60;;;;;;4949977;28;114652;-81
2023/03/19 02:31:30;;;;;;;9.18;6.15;;;6.40;46.80;;;;;;4950664;28;114827;-81
2023/03/19 02:34:20;;;;;;;9.35;6.13;;;6.40;46.90;;;;;;4966050;28;114409;-81
2023/03/19 02:37:01;;;;;;;9.07;6.18;;;6.40;47.00;;;;;;4964752;28;115012;-81
2023/03/19 02:40:09;;;;;;;8.95;6.18;;;6.40;47.30;;;;;;4965387;28;114799;-81
2023/03/19 02:42:37;;;;;;;8.77;6.40;;;6.40;47.50;;;;;;4977630;28;117012;-82
2023/03/19 02:45:04;;;;;;;9.02;6.15;;;6.30;47.30;;;;;;4947301;28;114474;-81
2023/03/19 02:47:32;;;;;;;10.65;6.32;;;6.30;47.30;;;;;;4964307;28;115159;-81
2023/03/19 02:49:59;;;;;;;10.68;7.25;;;6.40;47.50;;;;;;4964684;28;114711;-81
2023/03/19 02:52:27;;;;;;;8.65;6.88;;;6.40;47.50;;;;;;4966353;28;114545;-81
2023/03/19 02:54:55;;;;;;;9.00;6.32;;;6.40;47.60;;;;;;4967829;28;115454;-81
2023/03/19 02:57:23;;;;;;;9.90;6.47;;;6.40;47.50;;;;;;4984433;28;115095;-81
2023/03/19 02:59:51;;;;;;;10.95;6.45;;;6.40;47.50;;;;;;4985372;28;114582;-81
2023/03/19 03:02:18;;;;;;;10.55;6.53;;;6.40;47.50;;;;;;4960358;28;118288;-80
2023/03/19 03:04:47;;;;;;;10.10;6.30;;;6.50;47.60;;;;;;4949402;28;114780;-80
2023/03/19 03:07:15;;;;;;;9.57;6.97;;;6.50;47.60;;;;;;4948453;28;115251;-80
2023/03/19 03:09:42;;;;;;;8.15;6.22;;;6.50;47.60;;;;;;4965417;28;115711;-80
2023/03/19 03:12:09;;;;;;;8.32;6.03;;;6.50;47.60;;;;;;4964475;28;114869;-80
2023/03/19 03:14:37;;;;;;;8.02;5.95;;;6.50;47.60;;;;;;4948820;28;114547;-80
2023/03/19 03:17:04;;;;;;;10.50;5.18;;;6.50;47.60;;;;;;4947897;28;115106;-79
2023/03/19 03:19:32;;;;;;;9.70;6.18;;;6.60;47.70;;;;;;4971702;28;116298;-81
2023/03/19 03:21:59;;;;;;;8.70;6.28;;;6.50;47.80;;;;;;4966496;28;115703;-80
2023/03/19 03:24:28;;;;;;;9.05;5.63;;;6.50;47.80;;;;;;4966472;28;114242;-79
2023/03/19 03:26:55;;;;;;;10.20;5.82;;;6.60;47.90;;;;;;4963705;28;116336;-80
2023/03/19 03:29:22;;;;;;;8.95;6.35;;;6.50;47.90;;;;;;4976189;28;115136;-80
2023/03/19 03:31:50;;;;;;;10.07;5.95;;;6.50;48.10;;;;;;4985368;28;114718;-80
2023/03/19 03:34:18;;;;;;;7.70;6.15;;;6.50;48.10;;;;;;4984528;28;115219;-81
2023/03/19 03:36:45;;;;;;;9.32;5.85;;;6.50;48.10;;;;;;4984705;28;115122;-81
2023/03/19 03:39:13;;;;;;;6.82;5.57;;;6.50;48.20;;;;;;4985111;28;114664;-80
2023/03/19 03:41:41;;;;;;;8.05;5.22;;;6.40;48.60;;;;;;4952457;28;114398;-81
2023/03/19 03:44:09;;;;;;;8.25;5.88;;;6.40;48.60;;;;;;4984012;28;114823;-80
2023/03/19 03:46:38;;;;;;;7.55;5.68;;;6.40;48.50;;;;;;4983455;28;114786;-81
2023/03/19 03:49:06;;;;;;;8.43;5.72;;;6.30;48.50;;;;;;4967119;28;114596;-81
2023/03/19 03:51:33;;;;;;;8.88;5.95;;;6.30;48.50;;;;;;4951279;28;114482;-80
2023/03/19 03:54:01;;;;;;;10.13;5.22;;;6.30;48.60;;;;;;4980718;28;114414;-81
2023/03/19 03:56:28;;;;;;;7.22;5.57;;;6.40;48.80;;;;;;4944530;28;114814;-80
2023/03/19 03:58:56;;;;;;;8.25;5.47;;;6.30;48.70;;;;;;4963100;28;114820;-80
2023/03/19 04:01:24;;;;;;;7.90;5.70;;;6.30;48.80;;;;;;4965003;28;114517;-81
2023/03/19 04:03:54;;;;;;;7.22;5.53;;;6.30;49.00;;;;;;4953941;28;114614;-81
2023/03/19 04:06:23;;;;;;;7.63;5.18;;;6.30;48.90;;;;;;4968091;28;114317;-81
2023/03/19 04:09:06;;;;;;;7.57;5.22;;;6.30;49.00;;;;;;4949192;28;114686;-80
2023/03/19 04:11:35;;;;;;;8.18;5.97;;;6.30;48.90;;;;;;4948113;28;114489;-80
2023/03/19 04:14:03;;;;;;;8.40;5.75;;;6.30;49.00;;;;;;4963903;28;114469;-81
2023/03/19 04:16:32;;;;;;;7.97;6.13;;;6.20;49.20;;;;;;4947320;28;115573;-80
2023/03/19 04:18:59;;;;;;;9.48;6.15;;;6.20;49.10;;;;;;4931422;28;115893;-80
2023/03/19 04:21:28;;;;;;;7.55;5.95;;;6.20;49.30;;;;;;4931596;28;114374;-81
2023/03/19 04:23:56;;;;;;;9.38;6.13;;;6.20;49.30;;;;;;4965406;28;114505;-81
2023/03/19 04:26:23;;;;;;;10.32;6.32;;;6.20;49.20;;;;;;4962957;28;115453;-81
2023/03/19 04:28:50;;;;;;;8.88;6.32;;;6.20;49.30;;;;;;4947681;28;115795;-80
2023/03/19 04:31:18;;;;;;;9.35;6.60;;;6.20;49.30;;;;;;4948999;28;114615;-80
2023/03/19 04:33:45;;;;;;;9.48;6.78;;;6.20;49.30;;;;;;4948509;28;114337;-81
2023/03/19 04:36:12;;;;;;;9.90;5.90;;;6.20;49.30;;;;;;4963832;28;116579;-80
2023/03/19 04:38:40;;;;;;;8.23;5.28;;;6.20;49.30;;;;;;4963649;28;114668;-81
2023/03/19 04:41:07;;;;;;;7.03;5.13;;;6.20;49.20;;;;;;4964798;28;114405;-82
2023/03/19 04:43:38;;;;;;;10.48;5.65;;;6.20;49.40;;;;;;4964088;28;114583;-81
2023/03/19 04:46:08;;;;;;;9.40;5.85;;;6.20;49.40;;;;;;4948335;28;115180;-82
2023/03/19 04:48:38;;;;;;;8.25;5.65;;;6.20;49.30;;;;;;4966345;28;114682;-80
2023/03/19 04:51:08;;;;;;;8.25;6.03;;;6.10;49.30;;;;;;4950612;28;114379;-80
2023/03/19 04:53:36;;;;;;;9.23;5.90;;;6.10;49.40;;;;;;4986676;28;114423;-81
2023/03/19 04:56:06;;;;;;;7.97;5.85;;;6.10;49.50;;;;;;4986040;28;115483;-81
2023/03/19 04:58:34;;;;;;;7.82;5.95;;;6.00;49.50;;;;;;4969781;28;115255;-81
2023/03/19 05:01:02;;;;;;;8.57;5.85;;;6.00;49.60;;;;;;4986518;28;114664;-80
2023/03/19 05:03:52;;;;;;;8.50;6.10;;;6.00;49.50;;;;;;4972568;28;114936;-81
2023/03/19 05:06:20;;;;;;;10.95;6.85;;;6.00;49.60;;;;;;4965980;28;115051;-80
2023/03/19 05:08:47;;;;;;;8.52;6.70;;;6.00;49.60;;;;;;4967620;28;114700;-80
2023/03/19 05:11:17;;;;;;;8.43;5.93;;;6.00;49.60;;;;;;4966424;28;114339;-81
2023/03/19 05:13:57;;;;;;;8.00;5.63;;;6.00;49.70;;;;;;4952148;28;114478;-80
2023/03/19 05:16:34;;;;;;;8.00;5.63;;;5.90;49.60;;;;;;4950158;28;115122;-80
2023/03/19 05:19:02;;;;;;;7.70;5.93;;;6.00;49.80;;;;;;4949958;28;115272;-81
2023/03/19 05:21:31;;;;;;;7.03;4.88;;;6.00;49.80;;;;;;4934007;28;114721;-81
2023/03/19 05:23:59;;;;;;;8.98;5.88;;;6.10;49.70;;;;;;4943854;28;114444;-81
2023/03/19 05:26:28;;;;;;;8.70;6.38;;;6.20;49.60;;;;;;4949865;28;115064;-81
2023/03/19 05:29:18;;;;;;;9.88;5.53;;;6.40;49.40;;;;;;4966672;28;115088;-81
2023/03/19 05:32:10;;;;;;;8.95;5.97;;;6.60;49.00;;;;;;4966188;28;114803;-81
2023/03/19 05:34:38;;;;;;;8.57;6.38;;;6.70;48.80;;;;;;4967013;28;114507;-80
2023/03/19 05:37:07;;;;;;;8.57;5.53;;;6.80;48.40;;;;;;4948892;28;117837;-81
2023/03/19 05:39:35;;;;;;;7.78;5.90;;;7.00;48.10;;;;;;4948671;28;115451;-81
2023/03/19 05:42:06;;;;;;;8.40;6.28;;;7.20;47.80;;;;;;4966621;28;114595;-81
2023/03/19 05:44:34;;;;;;;9.07;6.22;;;7.20;47.70;;;;;;4967137;28;114442;-81
2023/03/19 05:47:13;;;;;;;7.85;6.28;;;7.30;47.40;;;;;;4952797;28;115035;-81
2023/03/19 05:49:46;;;;;;;10.68;6.82;;;7.40;47.20;;;;;;4968396;28;116733;-80
2023/03/19 05:52:14;;;;;;;10.13;6.57;;;7.50;46.80;;;;;;4967356;28;114489;-81
2023/03/19 05:54:41;;;;;;;8.95;6.20;;;7.60;47.00;;;;;;4950816;28;114466;-81
2023/03/19 05:57:25;;;;;;;9.68;6.05;;;7.80;46.70;;;;;;4950023;28;117242;-81
2023/03/19 06:00:02;;;;;;;8.52;5.53;;;7.90;45.90;;;;;;4950224;28;117276;-81
2023/03/19 06:02:33;;;;;;;9.00;5.80;;;8.00;45.80;;;;;;4966454;28;114499;-82
2023/03/19 06:05:15;;;;;;;9.27;6.10;;;8.10;45.50;;;;;;4951711;28;114667;-81
2023/03/19 06:07:43;;;;;;;8.88;5.93;;;8.20;45.50;;;;;;4948348;28;116280;-81
2023/03/19 06:10:18;;;;;;;9.50;6.05;;;8.30;45.10;;;;;;4949717;28;117033;-81
2023/03/19 06:12:49;;;;;;;8.85;5.60;;;8.40;44.90;;;;;;4966312;28;114526;-81
2023/03/19 06:15:42;;;;;;;9.35;6.15;;;8.50;44.70;;;;;;4966199;28;114610;-81
2023/03/19 06:18:32;;;;;;;8.98;5.80;;;8.60;44.40;;;;;;4965578;28;117647;-81
2023/03/19 06:21:04;;;;;;;9.90;6.03;;;8.70;44.10;;;;;;4949303;28;116287;-81
2023/03/19 06:23:31;;;;;;;10.55;5.93;;;8.80;44.10;;;;;;4965809;28;114793;-81
2023/03/19 06:26:01;;;;;;;9.15;6.22;;;9.10;43.60;;;;;;4950019;28;114482;-82
2023/03/19 06:28:33;;;;;;;8.57;5.60;;;9.20;43.20;;;;;;4949392;28;115082;-81
2023/03/19 06:31:01;;;;;;;9.45;6.00;;;9.20;43.30;;;;;;4948745;28;114671;-81
2023/03/19 06:33:49;;;;;;;9.05;5.93;;;9.30;43.20;;;;;;4965711;28;114497;-81
2023/03/19 06:36:16;;;;;;;9.40;5.68;;;9.40;42.70;;;;;;4949612;28;115032;-81
2023/03/19 06:38:44;;;;;;;9.07;5.53;;;9.50;42.40;;;;;;4948684;28;115899;-81
2023/03/19 06:41:15;;;;;;;11.02;5.70;;;9.50;42.40;;;;;;4964425;28;114817;-81
2023/03/19 06:43:42;;;;;;;8.18;5.70;;;9.70;42.30;;;;;;4985013;28;114780;-81
2023/03/19 06:46:10;;;;;;;8.02;5.47;;;9.80;42.10;;;;;;4984798;28;114794;-81
2023/03/19 06:48:38;;;;;;;7.65;5.65;;;9.90;41.90;;;;;;4984139;28;115321;-81
2023/03/19 06:51:05;;;;;;;8.20;5.40;;;10.10;41.20;;;;;;4973220;28;116787;-81
2023/03/19 06:53:33;;;;;;;8.50;5.53;;;10.10;41.30;;;;;;4966054;28;114584;-81
2023/03/19 06:56:00;;;;;;;8.80;5.68;;;10.20;41.20;;;;;;4966581;28;114706;-81
2023/03/19 06:58:27;;;;;;;7.53;5.28;;;10.20;40.80;;;;;;4964470;28;114652;-81
2023/03/19 07:00:55;;;;;;;8.55;5.55;;;10.20;40.90;;;;;;4948417;28;114628;-81
2023/03/19 07:03:23;;;;;;;8.38;5.38;;;10.30;40.80;;;;;;4964857;28;114739;-81
2023/03/19 07:05:50;;;;;;;7.68;4.95;;;10.40;40.50;;;;;;4948732;28;114508;-80
2023/03/19 07:08:18;;;;;;;7.72;5.30;;;10.50;40.50;;;;;;4963557;28;118716;-81
2023/03/19 07:10:45;;;;;;;7.47;5.22;;;10.50;40.20;;;;;;4965045;28;114469;-81
2023/03/19 07:13:12;;;;;;;6.90;5.07;;;10.60;40.30;;;;;;4966547;28;114523;-81
2023/03/19 07:15:40;;;;;;;7.32;5.25;;;10.60;40.20;;;;;;4966887;28;114579;-81
2023/03/19 07:18:07;;;;;;;6.95;4.93;;;10.70;40.40;;;;;;4965889;28;118768;-82
2023/03/19 07:20:35;;;;;;;8.98;5.15;;;10.80;39.90;;;;;;4964223;28;115065;-81
2023/03/19 07:23:02;;;;;;;8.57;5.38;;;10.80;39.90;;;;;;4965454;28;114319;-81
2023/03/19 07:25:30;;;;;;;6.72;5.20;;;10.70;39.30;;;;;;4964856;28;114467;-81
2023/03/19 07:27:57;;;;;;;8.48;5.85;;;10.70;39.80;;;;;;4965502;28;115157;-81
2023/03/19 07:30:25;;;;;;;7.40;5.07;;;10.80;39.60;;;;;;4963594;28;114728;-82
2023/03/19 07:32:52;;;;;;;9.52;5.82;;;10.90;39.60;;;;;;4965687;28;114343;-81
2023/03/19 07:35:20;;;;;;;6.78;5.45;;;11.10;39.50;;;;;;4952392;28;114376;-81
2023/03/19 07:37:47;;;;;;;7.53;5.50;;;11.30;39.10;;;;;;4965182;28;114510;-82
2023/03/19 07:40:15;;;;;;;8.05;5.50;;;11.40;38.70;;;;;;4962115;28;114785;-82
2023/03/19 07:42:42;;;;;;;7.85;5.38;;;11.40;38.40;;;;;;4964990;28;114393;-82
2023/03/19 07:45:12;;;;;;;7.22;5.03;;;11.40;38.50;;;;;;4948519;28;114763;-82
2023/03/19 07:47:40;;;;;;;7.10;5.03;;;11.40;38.50;;;;;;4964237;28;115169;-82
2023/03/19 07:50:07;;;;;;;7.50;5.57;;;11.50;38.60;;;;;;4972974;28;114703;-82
2023/03/19 07:52:38;;;;;;;8.02;5.60;;;11.70;38.10;;;;;;4984263;28;114701;-82
2023/03/19 07:55:05;;;;;;;7.50;5.15;;;11.70;38.10;;;;;;4985351;28;114422;-82
2023/03/19 07:57:33;;;;;;;7.35;5.43;;;11.80;38.20;;;;;;4983326;28;115057;-82
2023/03/19 08:00:00;;;;;;;8.93;5.80;;;11.90;37.70;;;;;;4984018;28;114638;-82
2023/03/19 08:02:27;;;;;;;8.27;5.53;;;11.90;37.80;;;;;;4985375;28;114359;-81
2023/03/19 08:04:55;;;;;;;7.22;5.53;;;12.00;37.60;;;;;;4984283;28;120601;-81
2023/03/19 08:07:22;;;;;;;6.85;5.22;;;12.10;37.00;;;;;;4983885;28;115133;-81
2023/03/19 08:09:49;;;;;;;7.97;6.30;;;11.90;37.00;;;;;;4984285;28;114524;-82
2023/03/19 08:12:16;;;;;;;7.05;5.18;;;11.80;37.40;;;;;;4983024;28;114570;-81
2023/03/19 08:14:44;;;;;;;6.70;4.72;;;11.90;37.50;;;;;;4984708;28;114754;-81
2023/03/19 08:17:11;;;;;;;8.60;5.53;;;12.00;37.20;;;;;;4980448;28;116103;-82
2023/03/19 08:19:39;;;;;;;6.93;5.35;;;12.00;37.00;;;;;;4926705;28;114735;-81
2023/03/19 08:22:06;;;;;;;8.98;5.80;;;11.90;36.90;;;;;;4946503;28;114657;-81
2023/03/19 08:24:34;;;;;;;7.20;5.30;;;11.90;37.30;;;;;;4965436;28;114419;-81
2023/03/19 08:27:03;;;;;;;8.32;5.90;;;12.00;37.00;;;;;;4962111;28;115191;-81
2023/03/19 08:29:30;;;;;;;7.90;5.13;;;12.10;37.40;;;;;;4962032;28;114670;-82
2023/03/19 08:31:59;;;;;;;6.63;5.22;;;12.30;37.10;;;;;;4963523;28;114380;-81
2023/03/19 08:34:26;;;;;;;7.90;5.13;;;12.50;36.80;;;;;;4947053;28;114708;-81
2023/03/19 08:36:54;;;;;;;9.85;5.30;;;12.70;36.50;;;;;;4962561;28;115116;-82
2023/03/19 08:39:21;;;;;;;7.32;5.55;;;12.80;36.20;;;;;;4962641;28;116921;-81
2023/03/19 08:41:48;;;;;;;7.80;5.63;;;12.80;36.30;;;;;;4962076;28;114851;-82
2023/03/19 08:44:15;;;;;;;7.32;5.35;;;13.00;36.30;;;;;;4963109;28;114571;-82
2023/03/19 08:46:43;;;;;;;9.98;6.00;;;13.10;35.60;;;;;;4962802;28;116193;-82
2023/03/19 08:49:10;;;;;;;8.05;5.88;;;13.00;35.90;;;;;;4962158;28;116791;-82
2023/03/19 08:51:37;;;;;;;8.57;5.55;;;13.10;35.80;;;;;;4984591;28;114698;-81
2023/03/19 08:54:05;;;;;;;8.38;5.57;;;13.20;35.70;;;;;;4983261;28;114562;-82
2023/03/19 08:56:32;;;;;;;9.18;5.80;;;13.30;35.80;;;;;;4949686;28;115127;-80
2023/03/19 08:58:59;;;;;;;8.45;6.05;;;13.30;35.40;;;;;;4982838;28;114874;-80
2023/03/19 09:01:35;;;;;;;8.70;6.20;;;13.20;35.20;;;;;;4982639;28;114715;-82
2023/03/19 09:04:02;;;;;;;7.45;5.32;;;13.10;35.30;;;;;;4981728;28;120705;-81
2023/03/19 09:06:30;;;;;;;7.55;5.28;;;13.10;35.40;;;;;;4983026;28;115201;-82
2023/03/19 09:08:57;;;;;;;8.05;5.38;;;13.10;35.50;;;;;;4965697;28;114716;-81
2023/03/19 09:11:26;;;;;;;8.85;6.43;;;13.20;35.60;;;;;;4965442;28;118438;-81
2023/03/19 09:13:55;;;;;;;8.00;5.90;;;13.20;35.20;;;;;;4984195;28;114278;-81
2023/03/19 09:16:28;;;;;;;9.32;5.97;;;13.20;35.30;;;;;;4965976;28;115058;-81
2023/03/19 09:18:56;;;;;;;10.85;5.97;;;13.40;35.30;;;;;;4972140;28;114646;-81
2023/03/19 09:21:25;;;;;;;9.23;5.68;;;13.50;35.20;;;;;;4971214;28;114669;-81
2023/03/19 09:23:52;;;;;;;7.93;5.60;;;13.70;35.10;;;;;;4964220;28;114364;-81
2023/03/19 09:26:20;;;;;;;9.57;6.10;;;13.90;34.90;;;;;;4963046;28;115718;-82
2023/03/19 09:28:47;;;;;;;7.70;5.40;;;14.00;34.60;;;;;;4962189;28;114691;-82
2023/03/19 09:31:15;;;;;;;9.32;6.20;;;14.00;34.50;;;;;;4962997;28;114896;-81
2023/03/19 09:33:42;;;;;;;7.93;5.53;;;13.90;34.40;;;;;;4966932;28;114635;-80
2023/03/19 09:36:09;;;;;;;9.63;6.20;;;13.90;34.40;;;;;;4964650;28;115266;-80
2023/03/19 09:38:36;;;;;;;8.68;6.35;;;13.90;34.50;;;;;;4948944;28;114636;-82
2023/03/19 09:41:25;;;;;;;9.02;5.60;;;14.10;34.50;;;;;;4964001;28;114593;-83
2023/03/19 09:44:10;;;;;;;10.05;6.30;;;14.20;33.90;;;;;;4954938;28;114642;-83
2023/03/19 09:46:53;;;;;;;9.65;5.90;;;14.20;34.00;;;;;;4974558;28;115204;-83
2023/03/19 09:49:28;;;;;;;7.75;4.85;;;14.10;33.70;;;;;;4950112;28;115364;-81
2023/03/19 09:51:57;;;;;;;7.18;5.22;;;14.10;34.20;;;;;;4950854;28;116122;-81
2023/03/19 09:54:28;;;;;;;7.65;4.88;;;14.20;34.00;;;;;;4964348;28;115368;-81
2023/03/19 09:56:55;;;;;;;8.15;5.28;;;14.30;33.20;;;;;;4929878;28;118908;-81
2023/03/19 09:59:24;;;;;;;7.80;5.25;;;14.20;33.50;;;;;;4964475;28;114763;-80
2023/03/19 10:02:41;;;;;;;7.93;5.63;;;14.20;33.60;;;;;;4949357;28;114980;-81
2023/03/19 10:05:44;;;;;;;8.60;5.63;;;14.20;33.70;;;;;;4949708;28;114524;-81
2023/03/19 10:08:37;;;;;;;7.57;5.63;;;14.30;33.40;;;;;;4945559;28;117628;-81
2023/03/19 10:12:07;;;;;;;7.38;5.13;;;14.40;33.40;;;;;;4963573;28;115063;-82
2023/03/19 10:15:02;;;;;;;8.30;5.47;;;14.40;33.30;;;;;;4964455;28;114480;-81
2023/03/19 10:17:55;;;;;;;7.60;4.90;;;14.30;33.30;;;;;;4964973;28;114617;-80
2023/03/19 10:20:38;;;;;;;7.53;5.40;;;14.30;33.10;;;;;;4973990;28;116593;-81
2023/03/19 10:23:39;;;;;;;7.80;5.25;;;14.20;33.40;;;;;;4977031;28;116082;-81
2023/03/19 10:26:16;;;;;;;7.97;5.50;;;14.20;33.40;;;;;;4955508;28;114470;-82
2023/03/19 10:29:03;;;;;;;8.98;5.78;;;14.20;33.40;;;;;;4987862;28;114410;-83
2023/03/19 10:32:04;;;;;;;8.55;5.63;;;14.20;33.20;;;;;;4964585;28;116847;-82
2023/03/19 10:34:52;;;;;;;7.07;5.45;;;14.40;33.80;;;;;;4966133;28;114692;-82
2023/03/19 10:37:26;;;;;;;8.65;5.32;;;14.60;33.30;;;;;;4963428;28;116081;-82
2023/03/19 10:39:58;;;;;;;9.00;5.82;;;14.70;33.30;;;;;;4964252;28;114780;-81
2023/03/19 10:43:05;;;;;;;7.05;5.53;;;14.80;33.00;;;;;;4929142;28;119160;-82
2023/03/19 10:45:34;;;;;;;9.05;5.90;;;15.00;32.80;;;;;;4963237;28;114710;-81
2023/03/19 10:48:04;;;;;;;8.65;5.45;;;15.10;33.10;;;;;;4966038;28;114806;-82
2023/03/19 10:50:42;;;;;;;6.90;5.03;;;15.30;32.30;;;;;;4967769;28;114778;-82
2023/03/19 10:53:12;;;;;;;8.02;5.60;;;15.30;32.40;;;;;;4983473;28;115184;-81
2023/03/19 10:55:53;;;;;;;7.30;5.47;;;15.30;32.10;;;;;;4969585;28;114752;-82
2023/03/19 10:58:26;;;;;;;8.52;5.75;;;15.50;31.80;;;;;;4966312;28;116636;-83
2023/03/19 11:01:12;;;;;;;10.38;5.60;;;15.40;32.00;;;;;;4931982;28;114688;-84
2023/03/19 11:03:57;;;;;;;6.28;4.78;;;15.50;32.70;;;;;;4965163;28;115599;-83
2023/03/19 11:06:32;;;;;;;8.73;5.68;;;15.50;32.30;;;;;;4966440;28;115817;-83
2023/03/19 11:09:16;;;;;;;7.47;4.88;;;15.50;32.10;;;;;;4965823;28;114573;-82
2023/03/19 11:11:55;;;;;;;8.93;5.07;;;15.70;31.60;;;;;;4972443;28;114536;-82
2023/03/19 11:14:33;;;;;;;8.90;5.30;;;15.50;31.70;;;;;;4948277;28;115253;-83
2023/03/19 11:17:15;;;;;;;7.63;5.20;;;15.40;31.70;;;;;;4947545;28;114729;-83
2023/03/19 11:19:57;;;;;;;6.65;5.07;;;15.50;32.00;;;;;;4963469;28;114678;-82
2023/03/19 11:22:32;;;;;;;6.15;4.55;;;15.50;31.80;;;;;;4975154;28;114961;-82
2023/03/19 11:25:12;;;;;;;;;;;;;;;;;;;;;
2023/03/19 11:28:06;;;;;;;10.25;5.32;;;15.40;31.40;;;;;;4973323;28;114630;-83
2023/03/19 11:30:56;;;;;;;8.25;5.28;;;15.30;31.50;;;;;;4977547;28;119587;-82
2023/03/19 11:33:38;;;;;;;9.32;5.15;;;15.20;31.70;;;;;;4984109;28;114587;-84
2023/03/19 11:36:16;;;;;;;8.13;5.20;;;15.20;32.10;;;;;;4980054;28;115375;-82
2023/03/19 11:39:19;;;;;;;8.82;5.70;;;15.30;32.30;;;;;;4961259;28;114713;-82
2023/03/19 11:43:04;;;;;;;7.38;5.18;;;15.50;31.70;;;;;;4964070;28;114650;-82
2023/03/19 11:45:38;;;;;;;9.07;5.72;;;15.40;31.50;;;;;;4947315;28;114808;-81
2023/03/19 11:48:43;;;;;;;9.27;5.63;;;15.20;31.60;;;;;;4908318;28;117929;-81
2023/03/19 11:51:16;;;;;;;11.05;6.07;;;15.20;31.60;;;;;;4959101;28;114762;-80
2023/03/19 11:54:02;;;;;;;9.98;5.55;;;15.20;31.70;;;;;;4976175;28;115811;-81
2023/03/19 11:56:49;;;;;;;7.93;5.50;;;15.30;31.90;;;;;;4969959;28;114540;-81
2023/03/19 11:59:45;;;;;;;9.10;5.38;;;15.40;31.80;;;;;;4968614;28;118266;-80
2023/03/19 12:02:24;;;;;;;9.38;5.20;;;15.60;31.40;;;;;;4967089;28;114618;-81
2023/03/19 12:05:19;;;;;;;7.72;5.45;;;15.50;31.50;;;;;;4970671;28;114640;-83
2023/03/19 12:07:50;;;;;;;;;;;15.60;31.70;;;;;;4970005;28;119530;-81
2023/03/19 12:10:52;;;;;;;8.00;5.20;;;15.60;32.40;;;;;;4975256;28;115089;-83
2023/03/19 12:13:28;;;;;;;7.78;5.13;;;15.60;31.90;;;;;;4966186;28;114691;-82
2023/03/19 12:16:33;;;;;;;8.02;5.60;;;15.70;31.70;;;;;;4970170;28;118199;-82
2023/03/19 12:19:32;;;;;;;8.85;5.72;;;15.70;31.70;;;;;;4969340;28;114490;-82
2023/03/19 12:22:45;;;;;;;6.75;4.85;;;15.80;32.00;;;;;;4971882;28;115183;-81
2023/03/19 12:25:38;;;;;;;7.25;4.95;;;15.80;31.50;;;;;;4959204;28;115262;-81
2023/03/19 12:28:17;;;;;;;8.75;5.20;;;15.80;31.30;;;;;;4947403;28;114859;-82
2023/03/19 12:30:57;;;;;;;8.38;5.32;;;15.80;31.20;;;;;;4970227;28;114454;-82
2023/03/19 12:33:44;;;;;;;7.65;4.82;;;15.80;31.30;;;;;;4965547;28;115099;-83
2023/03/19 12:36:16;;;;;;;9.48;5.50;;;15.90;31.20;;;;;;4946532;28;116417;-80
2023/03/19 12:38:50;;;;;;;8.38;5.22;;;16.00;31.40;;;;;;4967748;28;114985;-81
2023/03/19 12:41:28;;;;;;;9.52;5.30;;;16.00;31.20;;;;;;4964377;28;114751;-82
2023/03/19 12:44:10;;;;;;;9.05;5.95;;;16.00;31.30;;;;;;4955582;28;115282;-82
2023/03/19 12:47:22;;;;;;;8.48;5.22;;;16.00;31.30;;;;;;4954468;28;115176;-82
2023/03/19 12:50:07;;;;;;;9.63;5.63;;;16.10;31.50;;;;;;4970949;28;118378;-82
2023/03/19 12:52:38;;;;;;;10.57;4.90;;;16.10;31.40;;;;;;4971271;28;114733;-82
2023/03/19 12:55:14;;;;;;;9.45;5.82;;;16.00;31.40;;;;;;4963790;28;115200;-82
2023/03/19 12:57:57;;;;;;;10.65;5.07;;;16.10;31.30;;;;;;4979779;28;115357;-82
2023/03/19 13:00:35;;;;;;;6.93;5.25;;;16.10;31.40;;;;;;4967382;28;114754;-82
2023/03/19 13:03:12;;;;;;;8.38;5.28;;;16.10;31.60;;;;;;4972814;28;114447;-81
2023/03/19 13:05:57;;;;;;;6.72;5.43;;;16.00;31.50;;;;;;4973415;28;115045;-82
2023/03/19 13:08:38;;;;;;;6.60;5.25;;;16.10;31.70;;;;;;4975393;28;114726;-82
2023/03/19 13:11:16;;;;;;;7.88;5.43;;;16.10;31.60;;;;;;4977251;28;114651;-81
2023/03/19 13:14:08;;;;;;;8.23;5.45;;;16.10;31.70;;;;;;4961055;28;114519;-81
2023/03/19 13:17:01;;;;;;;7.32;5.10;;;16.10;31.60;;;;;;4963521;28;115155;-81
2023/03/19 13:19:47;;;;;;;6.88;5.22;;;16.10;31.90;;;;;;4976711;28;114758;-81